sensor_id;sensor_type;location;lat;lon;timestamp;temperature;humidity
28071;DHT22;15383;48.408;9.968;2023-05-06T00:01:04;15.30;96.00
28071;DHT22;15383;48.408;9.968;2023-05-06T00:03:30;15.30;96.00
28071;DHT22;15383;48.408;9.968;2023-05-06T00:05:55;15.30;96.00
28071;DHT22;15383;48.408;9.968;2023-05-06T00:08:21;15.30;96.00
28071;DHT22;15383;48.408;9.968;2023-05-06T00:10:47;15.30;96.00
28071;DHT22;15383;48.408;9.968;2023-05-06T00:13:13;15.30;96.30
28071;DHT22;15383;48.408;9.968;2023-05-06T00:15:39;15.30;96.00
28071;DHT22;15383;48.408;9.968;2023-05-06T00:18:05;15.30;96.00
28071;DHT22;15383;48.408;9.968;2023-05-06T00:20:31;15.30;96.00
28071;DHT22;15383;48.408;9.968;2023-05-06T00:22:58;15.30;96.00
28071;DHT22;15383;48.408;9.968;2023-05-06T00:25:24;15.30;96.00
28071;DHT22;15383;48.408;9.968;2023-05-06T00:27:50;15.30;96.00
28071;DHT22;15383;48.408;9.968;2023-05-06T00:30:16;15.20;96.00
28071;DHT22;15383;48.408;9.968;2023-05-06T00:32:41;15.30;96.00
28071;DHT22;15383;48.408;9.968;2023-05-06T00:35:08;15.30;96.00
28071;DHT22;15383;48.408;9.968;2023-05-06T00:37:34;15.30;96.00
28071;DHT22;15383;48.408;9.968;2023-05-06T00:40:01;15.20;96.00
28071;DHT22;15383;48.408;9.968;2023-05-06T00:42:27;15.30;96.00
28071;DHT22;15383;48.408;9.968;2023-05-06T00:44:52;15.30;96.00
28071;DHT22;15383;48.408;9.968;2023-05-06T00:47:20;15.30;96.00
28071;DHT22;15383;48.408;9.968;2023-05-06T00:49:47;15.30;96.00
28071;DHT22;15383;48.408;9.968;2023-05-06T00:52:13;15.30;96.00
28071;DHT22;15383;48.408;9.968;2023-05-06T00:54:40;15.20;96.00
28071;DHT22;15383;48.408;9.968;2023-05-06T00:57:06;15.20;96.00
28071;DHT22;15383;48.408;9.968;2023-05-06T00:59:32;15.20;96.00
28071;DHT22;15383;48.408;9.968;2023-05-06T01:01:59;15.20;96.00
28071;DHT22;15383;48.408;9.968;2023-05-06T01:04:25;15.20;96.00
28071;DHT22;15383;48.408;9.968;2023-05-06T01:07:21;15.20;96.00
28071;DHT22;15383;48.408;9.968;2023-05-06T01:10:02;15.20;96.00
28071;DHT22;15383;48.408;9.968;2023-05-06T01:13:04;15.20;96.00
28071;DHT22;15383;48.408;9.968;2023-05-06T01:15:35;15.20;96.00
28071;DHT22;15383;48.408;9.968;2023-05-06T01:18:08;15.20;96.00
28071;DHT22;15383;48.408;9.968;2023-05-06T01:20:35;15.20;96.00
28071;DHT22;15383;48.408;9.968;2023-05-06T01:23:13;15.20;96.00
28071;DHT22;15383;48.408;9.968;2023-05-06T01:25:39;15.20;96.00
28071;DHT22;15383;48.408;9.968;2023-05-06T01:28:06;15.20;96.00
28071;DHT22;15383;48.408;9.968;2023-05-06T01:30:57;15.20;96.00
28071;DHT22;15383;48.408;9.968;2023-05-06T01:33:38;15.10;96.00
28071;DHT22;15383;48.408;9.968;2023-05-06T01:36:13;15.20;96.00
28071;DHT22;15383;48.408;9.968;2023-05-06T01:41:16;15.10;96.00
28071;DHT22;15383;48.408;9.968;2023-05-06T01:43:44;15.10;95.90
28071;DHT22;15383;48.408;9.968;2023-05-06T01:46:14;15.10;95.90
28071;DHT22;15383;48.408;9.968;2023-05-06T01:48:42;15.10;95.90
28071;DHT22;15383;48.408;9.968;2023-05-06T01:51:09;15.10;95.90
28071;DHT22;15383;48.408;9.968;2023-05-06T01:53:35;15.10;95.90
28071;DHT22;15383;48.408;9.968;2023-05-06T01:56:01;15.10;95.90
28071;DHT22;15383;48.408;9.968;2023-05-06T01:58:27;15.10;95.90
28071;DHT22;15383;48.408;9.968;2023-05-06T02:00:53;15.10;95.90
28071;DHT22;15383;48.408;9.968;2023-05-06T02:03:18;15.10;95.90
28071;DHT22;15383;48.408;9.968;2023-05-06T02:05:44;15.10;95.90
28071;DHT22;15383;48.408;9.968;2023-05-06T02:08:10;15.10;95.90
28071;DHT22;15383;48.408;9.968;2023-05-06T02:10:36;15.10;95.90
28071;DHT22;15383;48.408;9.968;2023-05-06T02:13:01;15.10;95.90
28071;DHT22;15383;48.408;9.968;2023-05-06T02:15:27;15.10;95.80
28071;DHT22;15383;48.408;9.968;2023-05-06T02:17:53;15.10;95.90
28071;DHT22;15383;48.408;9.968;2023-05-06T02:20:19;15.10;95.80
28071;DHT22;15383;48.408;9.968;2023-05-06T02:22:45;15.10;95.90
28071;DHT22;15383;48.408;9.968;2023-05-06T02:25:11;15.10;95.90
28071;DHT22;15383;48.408;9.968;2023-05-06T02:27:37;15.00;95.80
28071;DHT22;15383;48.408;9.968;2023-05-06T02:30:02;15.10;95.70
28071;DHT22;15383;48.408;9.968;2023-05-06T02:32:28;15.00;95.80
28071;DHT22;15383;48.408;9.968;2023-05-06T02:34:54;15.10;95.90
28071;DHT22;15383;48.408;9.968;2023-05-06T02:37:20;15.00;95.80
28071;DHT22;15383;48.408;9.968;2023-05-06T02:39:46;15.00;95.80
28071;DHT22;15383;48.408;9.968;2023-05-06T02:42:15;15.00;95.80
28071;DHT22;15383;48.408;9.968;2023-05-06T02:44:41;15.00;95.90
28071;DHT22;15383;48.408;9.968;2023-05-06T02:47:07;15.00;95.90
28071;DHT22;15383;48.408;9.968;2023-05-06T02:49:32;15.00;95.80
28071;DHT22;15383;48.408;9.968;2023-05-06T02:51:58;15.00;95.80
28071;DHT22;15383;48.408;9.968;2023-05-06T02:54:24;15.00;95.80
28071;DHT22;15383;48.408;9.968;2023-05-06T02:56:51;15.00;95.70
28071;DHT22;15383;48.408;9.968;2023-05-06T02:59:17;15.00;95.70
28071;DHT22;15383;48.408;9.968;2023-05-06T03:01:43;15.00;95.80
28071;DHT22;15383;48.408;9.968;2023-05-06T03:04:09;15.00;95.80
28071;DHT22;15383;48.408;9.968;2023-05-06T03:06:35;15.00;95.80
28071;DHT22;15383;48.408;9.968;2023-05-06T03:09:01;15.00;95.80
28071;DHT22;15383;48.408;9.968;2023-05-06T03:11:27;15.00;95.80
28071;DHT22;15383;48.408;9.968;2023-05-06T03:13:56;15.00;95.70
28071;DHT22;15383;48.408;9.968;2023-05-06T03:16:22;15.00;95.70
28071;DHT22;15383;48.408;9.968;2023-05-06T03:18:48;15.00;95.70
28071;DHT22;15383;48.408;9.968;2023-05-06T03:21:14;15.00;95.70
28071;DHT22;15383;48.408;9.968;2023-05-06T03:23:40;15.00;95.70
28071;DHT22;15383;48.408;9.968;2023-05-06T03:26:06;15.00;95.70
28071;DHT22;15383;48.408;9.968;2023-05-06T03:28:32;15.00;95.70
28071;DHT22;15383;48.408;9.968;2023-05-06T03:30:58;15.00;95.60
28071;DHT22;15383;48.408;9.968;2023-05-06T03:33:24;15.00;95.70
28071;DHT22;15383;48.408;9.968;2023-05-06T03:35:50;15.00;95.50
28071;DHT22;15383;48.408;9.968;2023-05-06T03:38:16;14.90;95.50
28071;DHT22;15383;48.408;9.968;2023-05-06T03:40:42;15.00;95.80
28071;DHT22;15383;48.408;9.968;2023-05-06T03:43:08;15.00;95.60
28071;DHT22;15383;48.408;9.968;2023-05-06T03:45:34;14.90;95.50
28071;DHT22;15383;48.408;9.968;2023-05-06T03:48:00;14.90;95.50
28071;DHT22;15383;48.408;9.968;2023-05-06T03:50:26;14.90;95.40
28071;DHT22;15383;48.408;9.968;2023-05-06T03:52:52;14.90;95.50
28071;DHT22;15383;48.408;9.968;2023-05-06T03:55:18;14.90;95.60
28071;DHT22;15383;48.408;9.968;2023-05-06T03:57:44;14.90;95.60
28071;DHT22;15383;48.408;9.968;2023-05-06T04:00:10;14.90;95.50
28071;DHT22;15383;48.408;9.968;2023-05-06T04:02:36;14.90;95.60
28071;DHT22;15383;48.408;9.968;2023-05-06T04:05:02;14.90;95.50
28071;DHT22;15383;48.408;9.968;2023-05-06T04:07:29;14.90;95.50
28071;DHT22;15383;48.408;9.968;2023-05-06T04:09:58;14.90;95.80
28071;DHT22;15383;48.408;9.968;2023-05-06T04:12:24;14.90;95.50
28071;DHT22;15383;48.408;9.968;2023-05-06T04:14:50;14.90;95.50
28071;DHT22;15383;48.408;9.968;2023-05-06T04:17:16;14.90;95.50
28071;DHT22;15383;48.408;9.968;2023-05-06T04:19:42;14.90;95.40
28071;DHT22;15383;48.408;9.968;2023-05-06T04:22:07;14.90;95.50
28071;DHT22;15383;48.408;9.968;2023-05-06T04:24:33;14.90;95.40
28071;DHT22;15383;48.408;9.968;2023-05-06T04:27:01;14.90;95.60
28071;DHT22;15383;48.408;9.968;2023-05-06T04:29:27;14.90;95.50
28071;DHT22;15383;48.408;9.968;2023-05-06T04:31:53;14.80;95.40
28071;DHT22;15383;48.408;9.968;2023-05-06T04:34:19;14.90;95.50
28071;DHT22;15383;48.408;9.968;2023-05-06T04:36:45;14.90;95.40
28071;DHT22;15383;48.408;9.968;2023-05-06T04:39:12;14.90;95.40
28071;DHT22;15383;48.408;9.968;2023-05-06T04:41:38;14.90;95.40
28071;DHT22;15383;48.408;9.968;2023-05-06T04:44:04;14.80;95.40
28071;DHT22;15383;48.408;9.968;2023-05-06T04:46:30;14.90;95.40
28071;DHT22;15383;48.408;9.968;2023-05-06T04:48:56;14.90;95.40
28071;DHT22;15383;48.408;9.968;2023-05-06T04:51:22;14.80;95.40
28071;DHT22;15383;48.408;9.968;2023-05-06T04:53:48;14.90;95.40
28071;DHT22;15383;48.408;9.968;2023-05-06T04:56:14;14.90;95.50
28071;DHT22;15383;48.408;9.968;2023-05-06T04:58:40;14.90;95.50
28071;DHT22;15383;48.408;9.968;2023-05-06T05:01:07;14.90;95.50
28071;DHT22;15383;48.408;9.968;2023-05-06T05:03:33;14.80;95.60
28071;DHT22;15383;48.408;9.968;2023-05-06T05:05:59;14.90;95.50
28071;DHT22;15383;48.408;9.968;2023-05-06T05:08:25;14.80;95.60
28071;DHT22;15383;48.408;9.968;2023-05-06T05:10:51;14.90;95.60
28071;DHT22;15383;48.408;9.968;2023-05-06T05:13:17;14.80;95.60
28071;DHT22;15383;48.408;9.968;2023-05-06T05:15:43;14.80;95.60
28071;DHT22;15383;48.408;9.968;2023-05-06T05:18:09;14.90;95.70
28071;DHT22;15383;48.408;9.968;2023-05-06T05:20:35;14.90;95.70
28071;DHT22;15383;48.408;9.968;2023-05-06T05:23:01;14.90;95.70
28071;DHT22;15383;48.408;9.968;2023-05-06T05:25:26;14.90;95.80
28071;DHT22;15383;48.408;9.968;2023-05-06T05:27:52;14.90;95.70
28071;DHT22;15383;48.408;9.968;2023-05-06T05:30:18;14.90;95.70
28071;DHT22;15383;48.408;9.968;2023-05-06T05:32:44;14.90;95.80
28071;DHT22;15383;48.408;9.968;2023-05-06T05:35:10;14.90;95.80
28071;DHT22;15383;48.408;9.968;2023-05-06T05:37:36;14.90;95.80
28071;DHT22;15383;48.408;9.968;2023-05-06T05:40:01;14.90;95.80
28071;DHT22;15383;48.408;9.968;2023-05-06T05:42:27;14.90;95.80
28071;DHT22;15383;48.408;9.968;2023-05-06T05:44:58;14.90;95.80
28071;DHT22;15383;48.408;9.968;2023-05-06T05:47:24;14.90;95.80
28071;DHT22;15383;48.408;9.968;2023-05-06T05:49:50;14.90;95.80
28071;DHT22;15383;48.408;9.968;2023-05-06T05:52:16;14.90;95.80
28071;DHT22;15383;48.408;9.968;2023-05-06T05:54:42;14.90;95.80
28071;DHT22;15383;48.408;9.968;2023-05-06T05:57:08;14.90;95.80
28071;DHT22;15383;48.408;9.968;2023-05-06T05:59:33;14.90;95.80
28071;DHT22;15383;48.408;9.968;2023-05-06T06:01:59;14.90;95.80
28071;DHT22;15383;48.408;9.968;2023-05-06T06:04:25;14.90;95.80
28071;DHT22;15383;48.408;9.968;2023-05-06T06:06:51;14.90;95.90
28071;DHT22;15383;48.408;9.968;2023-05-06T06:09:17;14.90;95.90
28071;DHT22;15383;48.408;9.968;2023-05-06T06:11:43;15.00;96.00
28071;DHT22;15383;48.408;9.968;2023-05-06T06:14:09;15.00;96.00
28071;DHT22;15383;48.408;9.968;2023-05-06T06:16:35;15.00;96.00
28071;DHT22;15383;48.408;9.968;2023-05-06T06:19:01;15.00;96.00
28071;DHT22;15383;48.408;9.968;2023-05-06T06:21:27;15.00;96.00
28071;DHT22;15383;48.408;9.968;2023-05-06T06:23:53;15.00;96.00
28071;DHT22;15383;48.408;9.968;2023-05-06T06:26:19;15.00;96.00
28071;DHT22;15383;48.408;9.968;2023-05-06T06:28:46;15.00;96.00
28071;DHT22;15383;48.408;9.968;2023-05-06T06:31:12;15.00;96.00
28071;DHT22;15383;48.408;9.968;2023-05-06T06:33:38;15.10;96.00
28071;DHT22;15383;48.408;9.968;2023-05-06T06:36:07;15.10;96.00
28071;DHT22;15383;48.408;9.968;2023-05-06T06:38:42;15.10;96.00
28071;DHT22;15383;48.408;9.968;2023-05-06T06:41:31;15.10;96.00
28071;DHT22;15383;48.408;9.968;2023-05-06T06:44:02;15.10;96.00
28071;DHT22;15383;48.408;9.968;2023-05-06T06:46:31;15.10;95.90
28071;DHT22;15383;48.408;9.968;2023-05-06T06:48:57;15.20;95.90
28071;DHT22;15383;48.408;9.968;2023-05-06T06:51:22;15.20;95.90
28071;DHT22;15383;48.408;9.968;2023-05-06T06:53:50;15.20;95.80
28071;DHT22;15383;48.408;9.968;2023-05-06T06:56:16;15.30;95.80
28071;DHT22;15383;48.408;9.968;2023-05-06T06:58:42;15.30;95.70
28071;DHT22;15383;48.408;9.968;2023-05-06T07:01:08;15.40;95.60
28071;DHT22;15383;48.408;9.968;2023-05-06T07:03:34;15.40;95.50
28071;DHT22;15383;48.408;9.968;2023-05-06T07:06:00;15.40;95.40
28071;DHT22;15383;48.408;9.968;2023-05-06T07:08:29;15.50;95.40
28071;DHT22;15383;48.408;9.968;2023-05-06T07:10:55;15.50;95.30
28071;DHT22;15383;48.408;9.968;2023-05-06T07:13:21;15.60;95.30
28071;DHT22;15383;48.408;9.968;2023-05-06T07:15:48;15.60;95.10
28071;DHT22;15383;48.408;9.968;2023-05-06T07:18:14;15.60;95.00
28071;DHT22;15383;48.408;9.968;2023-05-06T07:20:41;15.70;95.00
28071;DHT22;15383;48.408;9.968;2023-05-06T07:23:06;15.70;94.90
28071;DHT22;15383;48.408;9.968;2023-05-06T07:25:32;15.70;94.80
28071;DHT22;15383;48.408;9.968;2023-05-06T07:27:59;15.80;94.70
28071;DHT22;15383;48.408;9.968;2023-05-06T07:30:25;15.90;94.60
28071;DHT22;15383;48.408;9.968;2023-05-06T07:32:51;15.90;94.60
28071;DHT22;15383;48.408;9.968;2023-05-06T07:35:17;16.00;94.50
28071;DHT22;15383;48.408;9.968;2023-05-06T07:37:45;16.00;94.40
28071;DHT22;15383;48.408;9.968;2023-05-06T07:40:11;16.10;94.30
28071;DHT22;15383;48.408;9.968;2023-05-06T07:42:37;16.10;94.20
28071;DHT22;15383;48.408;9.968;2023-05-06T07:45:04;16.10;94.10
28071;DHT22;15383;48.408;9.968;2023-05-06T07:47:31;16.10;94.10
28071;DHT22;15383;48.408;9.968;2023-05-06T07:49:58;16.20;94.00
28071;DHT22;15383;48.408;9.968;2023-05-06T07:52:24;16.20;94.00
28071;DHT22;15383;48.408;9.968;2023-05-06T07:54:51;16.20;93.90
28071;DHT22;15383;48.408;9.968;2023-05-06T07:57:17;16.20;93.80
28071;DHT22;15383;48.408;9.968;2023-05-06T07:59:45;16.30;93.70
28071;DHT22;15383;48.408;9.968;2023-05-06T08:02:11;16.30;93.60
28071;DHT22;15383;48.408;9.968;2023-05-06T08:04:37;16.30;93.60
28071;DHT22;15383;48.408;9.968;2023-05-06T08:07:03;16.40;93.50
28071;DHT22;15383;48.408;9.968;2023-05-06T08:09:29;16.40;93.50
28071;DHT22;15383;48.408;9.968;2023-05-06T08:11:54;16.40;93.50
28071;DHT22;15383;48.408;9.968;2023-05-06T08:14:20;16.40;93.50
28071;DHT22;15383;48.408;9.968;2023-05-06T08:16:46;16.40;93.40
28071;DHT22;15383;48.408;9.968;2023-05-06T08:19:12;16.40;93.40
28071;DHT22;15383;48.408;9.968;2023-05-06T08:21:37;16.40;93.40
28071;DHT22;15383;48.408;9.968;2023-05-06T08:24:03;16.40;93.40
28071;DHT22;15383;48.408;9.968;2023-05-06T08:26:29;16.40;93.40
28071;DHT22;15383;48.408;9.968;2023-05-06T08:28:54;16.40;93.30
28071;DHT22;15383;48.408;9.968;2023-05-06T08:31:22;16.40;93.30
28071;DHT22;15383;48.408;9.968;2023-05-06T08:33:47;16.40;93.30
28071;DHT22;15383;48.408;9.968;2023-05-06T08:36:13;16.40;93.30
28071;DHT22;15383;48.408;9.968;2023-05-06T08:38:39;16.40;93.20
28071;DHT22;15383;48.408;9.968;2023-05-06T08:41:08;16.40;93.30
28071;DHT22;15383;48.408;9.968;2023-05-06T08:43:42;16.40;93.20
28071;DHT22;15383;48.408;9.968;2023-05-06T08:46:10;16.40;93.20
28071;DHT22;15383;48.408;9.968;2023-05-06T08:48:36;16.40;93.20
28071;DHT22;15383;48.408;9.968;2023-05-06T08:51:02;16.40;93.30
28071;DHT22;15383;48.408;9.968;2023-05-06T08:53:29;16.30;93.30
28071;DHT22;15383;48.408;9.968;2023-05-06T08:55:56;16.30;93.30
28071;DHT22;15383;48.408;9.968;2023-05-06T08:58:26;16.30;93.20
28071;DHT22;15383;48.408;9.968;2023-05-06T09:00:52;16.30;93.30
28071;DHT22;15383;48.408;9.968;2023-05-06T09:03:17;16.30;93.30
28071;DHT22;15383;48.408;9.968;2023-05-06T09:05:43;16.30;93.30
28071;DHT22;15383;48.408;9.968;2023-05-06T09:08:09;16.30;93.30
28071;DHT22;15383;48.408;9.968;2023-05-06T09:10:45;16.30;93.30
28071;DHT22;15383;48.408;9.968;2023-05-06T09:13:16;16.30;93.30
28071;DHT22;15383;48.408;9.968;2023-05-06T09:15:44;16.30;93.30
28071;DHT22;15383;48.408;9.968;2023-05-06T09:18:12;16.30;93.30
28071;DHT22;15383;48.408;9.968;2023-05-06T09:20:48;16.30;93.30
28071;DHT22;15383;48.408;9.968;2023-05-06T09:23:15;16.30;93.30
28071;DHT22;15383;48.408;9.968;2023-05-06T09:25:42;16.30;93.30
28071;DHT22;15383;48.408;9.968;2023-05-06T09:28:10;16.30;93.30
28071;DHT22;15383;48.408;9.968;2023-05-06T09:30:43;16.30;93.30
28071;DHT22;15383;48.408;9.968;2023-05-06T09:33:11;16.30;93.30
28071;DHT22;15383;48.408;9.968;2023-05-06T09:35:39;16.30;93.30
28071;DHT22;15383;48.408;9.968;2023-05-06T09:38:06;16.30;93.30
28071;DHT22;15383;48.408;9.968;2023-05-06T09:40:33;16.30;93.30
28071;DHT22;15383;48.408;9.968;2023-05-06T09:42:59;16.30;93.20
28071;DHT22;15383;48.408;9.968;2023-05-06T09:45:27;16.30;93.20
28071;DHT22;15383;48.408;9.968;2023-05-06T09:47:53;16.30;93.20
28071;DHT22;15383;48.408;9.968;2023-05-06T09:50:23;16.30;93.20
28071;DHT22;15383;48.408;9.968;2023-05-06T09:52:50;16.30;93.20
28071;DHT22;15383;48.408;9.968;2023-05-06T09:55:20;16.30;93.20
28071;DHT22;15383;48.408;9.968;2023-05-06T09:57:47;16.30;93.10
28071;DHT22;15383;48.408;9.968;2023-05-06T10:00:15;16.40;93.10
28071;DHT22;15383;48.408;9.968;2023-05-06T10:02:43;16.40;93.10
28071;DHT22;15383;48.408;9.968;2023-05-06T10:05:10;16.40;93.10
28071;DHT22;15383;48.408;9.968;2023-05-06T10:07:37;16.40;93.10
28071;DHT22;15383;48.408;9.968;2023-05-06T10:10:04;16.40;93.00
28071;DHT22;15383;48.408;9.968;2023-05-06T10:12:31;16.40;93.00
28071;DHT22;15383;48.408;9.968;2023-05-06T10:14:57;16.40;93.00
28071;DHT22;15383;48.408;9.968;2023-05-06T10:17:26;16.40;93.00
28071;DHT22;15383;48.408;9.968;2023-05-06T10:19:54;16.40;93.00
28071;DHT22;15383;48.408;9.968;2023-05-06T10:22:40;16.40;93.00
28071;DHT22;15383;48.408;9.968;2023-05-06T10:25:26;16.40;92.90
28071;DHT22;15383;48.408;9.968;2023-05-06T10:27:54;16.40;92.90
28071;DHT22;15383;48.408;9.968;2023-05-06T10:30:20;16.40;92.90
28071;DHT22;15383;48.408;9.968;2023-05-06T10:32:49;16.40;92.90
28071;DHT22;15383;48.408;9.968;2023-05-06T10:38:30;16.40;92.90
28071;DHT22;15383;48.408;9.968;2023-05-06T10:40:54;16.40;92.90
28071;DHT22;15383;48.408;9.968;2023-05-06T10:48:27;16.40;92.80
28071;DHT22;15383;48.408;9.968;2023-05-06T10:59:21;16.40;92.80
28071;DHT22;15383;48.408;9.968;2023-05-06T11:02:18;16.40;92.80
28071;DHT22;15383;48.408;9.968;2023-05-06T11:04:49;16.40;92.90
28071;DHT22;15383;48.408;9.968;2023-05-06T11:07:22;16.30;92.90
28071;DHT22;15383;48.408;9.968;2023-05-06T11:09:56;16.30;92.90
28071;DHT22;15383;48.408;9.968;2023-05-06T11:12:46;16.40;93.00
28071;DHT22;15383;48.408;9.968;2023-05-06T11:15:39;16.30;93.00
28071;DHT22;15383;48.408;9.968;2023-05-06T11:26:14;16.30;93.00
28071;DHT22;15383;48.408;9.968;2023-05-06T11:28:45;16.30;93.00
28071;DHT22;15383;48.408;9.968;2023-05-06T11:31:14;16.30;92.90
28071;DHT22;15383;48.408;9.968;2023-05-06T11:33:46;16.30;93.00
28071;DHT22;15383;48.408;9.968;2023-05-06T11:36:16;16.30;93.00
28071;DHT22;15383;48.408;9.968;2023-05-06T11:38:43;16.30;92.90
28071;DHT22;15383;48.408;9.968;2023-05-06T11:41:10;16.30;92.90
28071;DHT22;15383;48.408;9.968;2023-05-06T11:43:36;16.30;92.90
28071;DHT22;15383;48.408;9.968;2023-05-06T11:46:01;16.30;92.80
28071;DHT22;15383;48.408;9.968;2023-05-06T11:48:27;16.40;92.80
28071;DHT22;15383;48.408;9.968;2023-05-06T11:50:53;16.30;92.80
28071;DHT22;15383;48.408;9.968;2023-05-06T11:53:21;16.40;92.80
28071;DHT22;15383;48.408;9.968;2023-05-06T11:55:48;16.40;92.80
28071;DHT22;15383;48.408;9.968;2023-05-06T11:58:15;16.40;92.80
28071;DHT22;15383;48.408;9.968;2023-05-06T12:00:50;16.40;92.80
28071;DHT22;15383;48.408;9.968;2023-05-06T12:03:21;16.40;92.80
28071;DHT22;15383;48.408;9.968;2023-05-06T12:05:47;16.30;92.80
28071;DHT22;15383;48.408;9.968;2023-05-06T12:08:15;16.30;93.10
28071;DHT22;15383;48.408;9.968;2023-05-06T12:10:43;16.30;92.80
28071;DHT22;15383;48.408;9.968;2023-05-06T12:13:10;16.40;92.90
28071;DHT22;15383;48.408;9.968;2023-05-06T12:15:37;16.30;92.80
28071;DHT22;15383;48.408;9.968;2023-05-06T12:18:03;16.30;92.80
28071;DHT22;15383;48.408;9.968;2023-05-06T12:20:30;16.30;92.80
28071;DHT22;15383;48.408;9.968;2023-05-06T12:23:15;16.40;92.80
28071;DHT22;15383;48.408;9.968;2023-05-06T12:25:42;16.30;92.70
28071;DHT22;15383;48.408;9.968;2023-05-06T12:28:16;16.40;92.70
28071;DHT22;15383;48.408;9.968;2023-05-06T12:30:42;16.40;92.70
28071;DHT22;15383;48.408;9.968;2023-05-06T12:33:09;16.40;92.60
28071;DHT22;15383;48.408;9.968;2023-05-06T12:35:36;16.40;92.60
28071;DHT22;15383;48.408;9.968;2023-05-06T12:38:14;16.40;92.60
28071;DHT22;15383;48.408;9.968;2023-05-06T12:40:41;16.40;92.70
28071;DHT22;15383;48.408;9.968;2023-05-06T12:43:08;16.40;92.70
28071;DHT22;15383;48.408;9.968;2023-05-06T12:45:34;16.40;92.70
28071;DHT22;15383;48.408;9.968;2023-05-06T12:48:01;16.40;92.70
28071;DHT22;15383;48.408;9.968;2023-05-06T12:52:56;16.40;92.70
28071;DHT22;15383;48.408;9.968;2023-05-06T12:55:23;16.40;92.60
28071;DHT22;15383;48.408;9.968;2023-05-06T12:57:53;16.40;92.70
28071;DHT22;15383;48.408;9.968;2023-05-06T13:00:19;16.30;92.60
28071;DHT22;15383;48.408;9.968;2023-05-06T13:02:45;16.30;92.70
28071;DHT22;15383;48.408;9.968;2023-05-06T13:05:11;16.40;92.70
28071;DHT22;15383;48.408;9.968;2023-05-06T13:07:39;16.30;92.70
28071;DHT22;15383;48.408;9.968;2023-05-06T13:10:05;16.30;92.70
28071;DHT22;15383;48.408;9.968;2023-05-06T13:12:31;16.30;92.70
28071;DHT22;15383;48.408;9.968;2023-05-06T13:14:57;16.30;92.70
28071;DHT22;15383;48.408;9.968;2023-05-06T13:17:23;16.30;92.70
28071;DHT22;15383;48.408;9.968;2023-05-06T13:19:49;16.30;92.70
28071;DHT22;15383;48.408;9.968;2023-05-06T13:22:15;16.30;92.70
28071;DHT22;15383;48.408;9.968;2023-05-06T13:24:41;16.30;92.70
28071;DHT22;15383;48.408;9.968;2023-05-06T13:27:07;16.30;92.60
28071;DHT22;15383;48.408;9.968;2023-05-06T13:29:33;16.30;92.60
28071;DHT22;15383;48.408;9.968;2023-05-06T13:31:59;16.30;92.60
28071;DHT22;15383;48.408;9.968;2023-05-06T13:34:25;16.30;92.60
28071;DHT22;15383;48.408;9.968;2023-05-06T13:36:51;16.30;92.60
28071;DHT22;15383;48.408;9.968;2023-05-06T13:39:19;16.30;92.60
28071;DHT22;15383;48.408;9.968;2023-05-06T13:41:45;16.30;92.70
28071;DHT22;15383;48.408;9.968;2023-05-06T13:44:12;16.30;92.70
28071;DHT22;15383;48.408;9.968;2023-05-06T13:46:38;16.30;92.70
28071;DHT22;15383;48.408;9.968;2023-05-06T13:49:04;16.30;92.60
28071;DHT22;15383;48.408;9.968;2023-05-06T13:51:32;16.30;92.70
28071;DHT22;15383;48.408;9.968;2023-05-06T13:54:02;16.30;92.70
28071;DHT22;15383;48.408;9.968;2023-05-06T13:56:29;16.30;92.70
28071;DHT22;15383;48.408;9.968;2023-05-06T13:58:54;16.30;92.70
28071;DHT22;15383;48.408;9.968;2023-05-06T14:01:20;16.30;92.70
28071;DHT22;15383;48.408;9.968;2023-05-06T14:03:49;16.30;92.70
28071;DHT22;15383;48.408;9.968;2023-05-06T14:06:15;16.30;92.80
28071;DHT22;15383;48.408;9.968;2023-05-06T14:08:41;16.30;92.80
28071;DHT22;15383;48.408;9.968;2023-05-06T14:11:07;16.20;92.80
28071;DHT22;15383;48.408;9.968;2023-05-06T14:13:35;16.20;92.70
28071;DHT22;15383;48.408;9.968;2023-05-06T14:16:01;16.30;92.80
28071;DHT22;15383;48.408;9.968;2023-05-06T14:18:27;16.20;92.70
28071;DHT22;15383;48.408;9.968;2023-05-06T14:20:53;16.30;92.70
28071;DHT22;15383;48.408;9.968;2023-05-06T14:23:19;16.30;92.70
28071;DHT22;15383;48.408;9.968;2023-05-06T14:25:55;16.30;92.70
28071;DHT22;15383;48.408;9.968;2023-05-06T14:28:21;16.30;92.70
28071;DHT22;15383;48.408;9.968;2023-05-06T14:30:48;16.30;92.70
28071;DHT22;15383;48.408;9.968;2023-05-06T14:33:15;16.30;92.60
28071;DHT22;15383;48.408;9.968;2023-05-06T14:35:41;16.20;92.60
28071;DHT22;15383;48.408;9.968;2023-05-06T14:38:08;16.20;92.60
28071;DHT22;15383;48.408;9.968;2023-05-06T14:40:34;16.30;92.60
28071;DHT22;15383;48.408;9.968;2023-05-06T14:43:01;16.20;92.60
28071;DHT22;15383;48.408;9.968;2023-05-06T14:45:27;16.20;92.60
28071;DHT22;15383;48.408;9.968;2023-05-06T14:47:53;16.20;92.60
28071;DHT22;15383;48.408;9.968;2023-05-06T14:50:19;16.20;92.60
28071;DHT22;15383;48.408;9.968;2023-05-06T14:52:45;16.20;92.60
28071;DHT22;15383;48.408;9.968;2023-05-06T14:55:10;16.20;92.60
28071;DHT22;15383;48.408;9.968;2023-05-06T14:57:37;16.20;92.60
28071;DHT22;15383;48.408;9.968;2023-05-06T15:00:03;16.20;92.60
28071;DHT22;15383;48.408;9.968;2023-05-06T15:02:32;16.20;92.60
28071;DHT22;15383;48.408;9.968;2023-05-06T15:04:59;16.20;92.60
28071;DHT22;15383;48.408;9.968;2023-05-06T15:07:25;16.20;92.60
28071;DHT22;15383;48.408;9.968;2023-05-06T15:09:50;16.20;92.60
28071;DHT22;15383;48.408;9.968;2023-05-06T15:12:16;16.20;92.60
28071;DHT22;15383;48.408;9.968;2023-05-06T15:14:42;16.20;92.70
28071;DHT22;15383;48.408;9.968;2023-05-06T15:17:08;16.20;92.60
28071;DHT22;15383;48.408;9.968;2023-05-06T15:19:35;16.20;92.60
28071;DHT22;15383;48.408;9.968;2023-05-06T15:22:01;16.20;92.60
28071;DHT22;15383;48.408;9.968;2023-05-06T15:24:27;16.20;92.50
28071;DHT22;15383;48.408;9.968;2023-05-06T15:26:53;16.20;92.50
28071;DHT22;15383;48.408;9.968;2023-05-06T15:29:19;16.20;92.50
28071;DHT22;15383;48.408;9.968;2023-05-06T15:31:45;16.20;92.50
28071;DHT22;15383;48.408;9.968;2023-05-06T15:34:11;16.20;92.60
28071;DHT22;15383;48.408;9.968;2023-05-06T15:36:40;16.20;92.60
28071;DHT22;15383;48.408;9.968;2023-05-06T15:39:06;16.20;92.60
28071;DHT22;15383;48.408;9.968;2023-05-06T15:41:33;16.20;92.60
28071;DHT22;15383;48.408;9.968;2023-05-06T15:44:00;16.10;92.60
28071;DHT22;15383;48.408;9.968;2023-05-06T15:46:27;16.20;92.60
28071;DHT22;15383;48.408;9.968;2023-05-06T15:48:53;16.10;92.50
28071;DHT22;15383;48.408;9.968;2023-05-06T15:51:18;16.20;92.90
28071;DHT22;15383;48.408;9.968;2023-05-06T15:53:45;16.20;92.60
28071;DHT22;15383;48.408;9.968;2023-05-06T15:56:11;16.20;92.60
28071;DHT22;15383;48.408;9.968;2023-05-06T15:58:38;16.20;92.60
28071;DHT22;15383;48.408;9.968;2023-05-06T16:01:04;16.20;92.50